sensor_id;sensor_type;location;lat;lon;timestamp;P1;durP1;ratioP1;P2;durP2;ratioP2
64520;SDS011;50896;46.714;17.322;2023-07-24T00:00:30;4.82;;;3.80;;
64520;SDS011;50896;46.714;17.322;2023-07-24T00:03:01;6.68;;;4.18;;
64520;SDS011;50896;46.714;17.322;2023-07-24T00:05:34;6.20;;;4.18;;
64520;SDS011;50896;46.714;17.322;2023-07-24T00:08:04;7.88;;;4.55;;
64520;SDS011;50896;46.714;17.322;2023-07-24T00:10:34;5.90;;;4.22;;
64520;SDS011;50896;46.714;17.322;2023-07-24T00:13:05;4.68;;;4.15;;
64520;SDS011;50896;46.714;17.322;2023-07-24T00:15:47;5.47;;;4.07;;
64520;SDS011;50896;46.714;17.322;2023-07-24T00:18:18;4.70;;;4.20;;
64520;SDS011;50896;46.714;17.322;2023-07-24T00:20:59;8.48;;;4.68;;
64520;SDS011;50896;46.714;17.322;2023-07-24T00:23:29;6.38;;;4.30;;
64520;SDS011;50896;46.714;17.322;2023-07-24T00:25:58;6.50;;;4.68;;
64520;SDS011;50896;46.714;17.322;2023-07-24T00:28:35;8.07;;;4.85;;
64520;SDS011;50896;46.714;17.322;2023-07-24T00:31:06;5.90;;;4.65;;
64520;SDS011;50896;46.714;17.322;2023-07-24T00:33:36;8.77;;;4.53;;
64520;SDS011;50896;46.714;17.322;2023-07-24T00:36:08;5.88;;;4.63;;
64520;SDS011;50896;46.714;17.322;2023-07-24T00:38:43;7.78;;;4.75;;
64520;SDS011;50896;46.714;17.322;2023-07-24T00:41:17;5.93;;;4.22;;
64520;SDS011;50896;46.714;17.322;2023-07-24T00:43:50;7.32;;;4.80;;
64520;SDS011;50896;46.714;17.322;2023-07-24T00:50:54;6.40;;;4.53;;
64520;SDS011;50896;46.714;17.322;2023-07-24T00:53:25;5.80;;;4.40;;
64520;SDS011;50896;46.714;17.322;2023-07-24T00:55:57;7.55;;;4.63;;
64520;SDS011;50896;46.714;17.322;2023-07-24T00:58:30;6.80;;;4.75;;
64520;SDS011;50896;46.714;17.322;2023-07-24T01:01:01;5.50;;;4.20;;
64520;SDS011;50896;46.714;17.322;2023-07-24T01:03:32;8.18;;;4.38;;
64520;SDS011;50896;46.714;17.322;2023-07-24T01:06:05;5.00;;;3.80;;
64520;SDS011;50896;46.714;17.322;2023-07-24T01:08:36;4.72;;;3.88;;
64520;SDS011;50896;46.714;17.322;2023-07-24T01:11:24;5.18;;;3.63;;
64520;SDS011;50896;46.714;17.322;2023-07-24T01:14:09;4.95;;;4.03;;
64520;SDS011;50896;46.714;17.322;2023-07-24T01:17:00;5.95;;;4.07;;
64520;SDS011;50896;46.714;17.322;2023-07-24T01:25:23;5.05;;;4.30;;
64520;SDS011;50896;46.714;17.322;2023-07-24T01:28:08;5.15;;;3.80;;
64520;SDS011;50896;46.714;17.322;2023-07-24T01:30:43;6.25;;;3.60;;
64520;SDS011;50896;46.714;17.322;2023-07-24T01:33:11;6.53;;;4.13;;
64520;SDS011;50896;46.714;17.322;2023-07-24T01:35:57;6.82;;;4.72;;
64520;SDS011;50896;46.714;17.322;2023-07-24T01:38:33;5.18;;;3.65;;
64520;SDS011;50896;46.714;17.322;2023-07-24T01:41:11;5.85;;;3.88;;
64520;SDS011;50896;46.714;17.322;2023-07-24T01:43:43;5.20;;;3.78;;
64520;SDS011;50896;46.714;17.322;2023-07-24T01:46:14;6.15;;;4.47;;
64520;SDS011;50896;46.714;17.322;2023-07-24T01:48:49;5.72;;;4.18;;
64520;SDS011;50896;46.714;17.322;2023-07-24T01:51:24;6.30;;;4.30;;
64520;SDS011;50896;46.714;17.322;2023-07-24T01:53:58;10.65;;;4.85;;
64520;SDS011;50896;46.714;17.322;2023-07-24T01:56:30;6.13;;;4.82;;
64520;SDS011;50896;46.714;17.322;2023-07-24T01:58:59;6.30;;;4.57;;
64520;SDS011;50896;46.714;17.322;2023-07-24T02:01:37;6.18;;;4.70;;
64520;SDS011;50896;46.714;17.322;2023-07-24T02:04:20;5.50;;;4.43;;
64520;SDS011;50896;46.714;17.322;2023-07-24T02:07:02;6.00;;;4.50;;
64520;SDS011;50896;46.714;17.322;2023-07-24T02:09:34;6.03;;;4.15;;
64520;SDS011;50896;46.714;17.322;2023-07-24T02:12:06;6.93;;;4.45;;
64520;SDS011;50896;46.714;17.322;2023-07-24T02:14:51;6.20;;;4.28;;
64520;SDS011;50896;46.714;17.322;2023-07-24T02:17:23;6.55;;;4.85;;
64520;SDS011;50896;46.714;17.322;2023-07-24T02:19:51;6.63;;;4.40;;
64520;SDS011;50896;46.714;17.322;2023-07-24T02:22:25;9.70;;;5.00;;
64520;SDS011;50896;46.714;17.322;2023-07-24T02:25:00;5.65;;;4.15;;
64520;SDS011;50896;46.714;17.322;2023-07-24T02:27:31;7.88;;;4.75;;
64520;SDS011;50896;46.714;17.322;2023-07-24T02:30:14;6.38;;;4.70;;
64520;SDS011;50896;46.714;17.322;2023-07-24T02:33:07;6.65;;;4.60;;
64520;SDS011;50896;46.714;17.322;2023-07-24T02:35:40;10.25;;;5.03;;
64520;SDS011;50896;46.714;17.322;2023-07-24T02:38:10;7.32;;;4.13;;
64520;SDS011;50896;46.714;17.322;2023-07-24T02:40:40;5.53;;;4.35;;
64520;SDS011;50896;46.714;17.322;2023-07-24T02:43:13;7.63;;;5.00;;
64520;SDS011;50896;46.714;17.322;2023-07-24T02:45:45;6.72;;;4.45;;
64520;SDS011;50896;46.714;17.322;2023-07-24T02:48:20;7.38;;;4.50;;
64520;SDS011;50896;46.714;17.322;2023-07-24T02:50:51;5.65;;;4.28;;
64520;SDS011;50896;46.714;17.322;2023-07-24T02:53:27;9.05;;;4.88;;
64520;SDS011;50896;46.714;17.322;2023-07-24T02:56:02;6.72;;;4.75;;
64520;SDS011;50896;46.714;17.322;2023-07-24T02:58:34;6.68;;;4.47;;
64520;SDS011;50896;46.714;17.322;2023-07-24T03:01:06;5.47;;;4.70;;
64520;SDS011;50896;46.714;17.322;2023-07-24T03:03:36;8.40;;;5.00;;
64520;SDS011;50896;46.714;17.322;2023-07-24T03:06:03;5.43;;;4.45;;
64520;SDS011;50896;46.714;17.322;2023-07-24T03:08:36;8.90;;;4.88;;
64520;SDS011;50896;46.714;17.322;2023-07-24T03:11:05;14.70;;;4.68;;
64520;SDS011;50896;46.714;17.322;2023-07-24T03:13:41;6.88;;;4.63;;
64520;SDS011;50896;46.714;17.322;2023-07-24T03:16:16;7.35;;;4.57;;
64520;SDS011;50896;46.714;17.322;2023-07-24T03:19:02;7.22;;;4.80;;
64520;SDS011;50896;46.714;17.322;2023-07-24T03:21:36;6.97;;;4.97;;
64520;SDS011;50896;46.714;17.322;2023-07-24T03:24:12;6.32;;;4.88;;
64520;SDS011;50896;46.714;17.322;2023-07-24T03:26:48;7.40;;;4.82;;
64520;SDS011;50896;46.714;17.322;2023-07-24T03:29:33;7.82;;;5.00;;
64520;SDS011;50896;46.714;17.322;2023-07-24T03:32:02;7.55;;;4.72;;
64520;SDS011;50896;46.714;17.322;2023-07-24T03:34:50;8.10;;;4.63;;
64520;SDS011;50896;46.714;17.322;2023-07-24T03:37:23;6.57;;;4.32;;
64520;SDS011;50896;46.714;17.322;2023-07-24T03:39:55;10.27;;;5.05;;
64520;SDS011;50896;46.714;17.322;2023-07-24T03:45:01;6.05;;;4.82;;
64520;SDS011;50896;46.714;17.322;2023-07-24T03:47:33;7.13;;;4.57;;
64520;SDS011;50896;46.714;17.322;2023-07-24T03:50:02;6.88;;;4.97;;
64520;SDS011;50896;46.714;17.322;2023-07-24T03:52:37;7.93;;;4.95;;
64520;SDS011;50896;46.714;17.322;2023-07-24T03:55:09;6.13;;;4.30;;
64520;SDS011;50896;46.714;17.322;2023-07-24T03:57:40;6.63;;;4.90;;
64520;SDS011;50896;46.714;17.322;2023-07-24T04:00:10;7.68;;;5.00;;
64520;SDS011;50896;46.714;17.322;2023-07-24T04:02:45;6.57;;;4.50;;
64520;SDS011;50896;46.714;17.322;2023-07-24T04:05:14;8.68;;;4.57;;
64520;SDS011;50896;46.714;17.322;2023-07-24T04:07:50;7.00;;;5.10;;
64520;SDS011;50896;46.714;17.322;2023-07-24T04:10:23;6.55;;;4.68;;
64520;SDS011;50896;46.714;17.322;2023-07-24T04:12:56;6.57;;;4.78;;
64520;SDS011;50896;46.714;17.322;2023-07-24T04:15:38;6.97;;;4.63;;
64520;SDS011;50896;46.714;17.322;2023-07-24T04:18:06;6.43;;;4.68;;
64520;SDS011;50896;46.714;17.322;2023-07-24T04:20:45;5.18;;;4.28;;
64520;SDS011;50896;46.714;17.322;2023-07-24T04:23:14;6.03;;;4.53;;
64520;SDS011;50896;46.714;17.322;2023-07-24T04:25:46;6.65;;;5.05;;
64520;SDS011;50896;46.714;17.322;2023-07-24T04:28:20;7.03;;;4.47;;
64520;SDS011;50896;46.714;17.322;2023-07-24T04:30:51;7.88;;;4.78;;
64520;SDS011;50896;46.714;17.322;2023-07-24T04:33:21;5.80;;;4.20;;
64520;SDS011;50896;46.714;17.322;2023-07-24T04:35:54;8.13;;;4.35;;
64520;SDS011;50896;46.714;17.322;2023-07-24T04:38:32;6.43;;;4.13;;
64520;SDS011;50896;46.714;17.322;2023-07-24T04:41:03;6.35;;;4.43;;
64520;SDS011;50896;46.714;17.322;2023-07-24T04:43:35;7.10;;;4.85;;
64520;SDS011;50896;46.714;17.322;2023-07-24T04:46:10;9.73;;;4.78;;
64520;SDS011;50896;46.714;17.322;2023-07-24T04:48:40;7.03;;;5.30;;
64520;SDS011;50896;46.714;17.322;2023-07-24T04:51:09;6.00;;;4.13;;
64520;SDS011;50896;46.714;17.322;2023-07-24T04:53:38;6.53;;;4.90;;
64520;SDS011;50896;46.714;17.322;2023-07-24T04:56:07;10.05;;;5.10;;
64520;SDS011;50896;46.714;17.322;2023-07-24T04:58:43;8.73;;;4.90;;
64520;SDS011;50896;46.714;17.322;2023-07-24T05:01:13;8.48;;;4.88;;
64520;SDS011;50896;46.714;17.322;2023-07-24T05:03:46;9.48;;;4.55;;
64520;SDS011;50896;46.714;17.322;2023-07-24T05:06:17;6.72;;;4.78;;
64520;SDS011;50896;46.714;17.322;2023-07-24T05:08:45;9.17;;;5.20;;
64520;SDS011;50896;46.714;17.322;2023-07-24T05:11:13;9.60;;;4.68;;
64520;SDS011;50896;46.714;17.322;2023-07-24T05:13:42;7.45;;;5.05;;
64520;SDS011;50896;46.714;17.322;2023-07-24T05:16:16;9.52;;;5.35;;
64520;SDS011;50896;46.714;17.322;2023-07-24T05:18:49;5.68;;;4.75;;
64520;SDS011;50896;46.714;17.322;2023-07-24T05:21:24;7.30;;;4.85;;
64520;SDS011;50896;46.714;17.322;2023-07-24T05:23:54;9.93;;;5.78;;
64520;SDS011;50896;46.714;17.322;2023-07-24T05:26:25;10.35;;;5.57;;
64520;SDS011;50896;46.714;17.322;2023-07-24T05:28:59;6.70;;;5.13;;
64520;SDS011;50896;46.714;17.322;2023-07-24T05:31:27;6.78;;;4.70;;
64520;SDS011;50896;46.714;17.322;2023-07-24T05:33:57;6.50;;;5.20;;
64520;SDS011;50896;46.714;17.322;2023-07-24T05:36:30;7.43;;;5.00;;
64520;SDS011;50896;46.714;17.322;2023-07-24T05:39:01;9.43;;;5.47;;
64520;SDS011;50896;46.714;17.322;2023-07-24T05:41:53;7.75;;;5.25;;
64520;SDS011;50896;46.714;17.322;2023-07-24T05:46:56;9.02;;;5.70;;
64520;SDS011;50896;46.714;17.322;2023-07-24T05:49:24;8.83;;;5.70;;
64520;SDS011;50896;46.714;17.322;2023-07-24T05:51:56;7.93;;;5.15;;
64520;SDS011;50896;46.714;17.322;2023-07-24T05:54:23;7.90;;;5.10;;
64520;SDS011;50896;46.714;17.322;2023-07-24T05:56:52;6.15;;;4.80;;
64520;SDS011;50896;46.714;17.322;2023-07-24T05:59:25;8.25;;;5.13;;
64520;SDS011;50896;46.714;17.322;2023-07-24T06:01:59;9.25;;;5.75;;
64520;SDS011;50896;46.714;17.322;2023-07-24T06:04:31;9.93;;;5.75;;
64520;SDS011;50896;46.714;17.322;2023-07-24T06:07:27;9.75;;;5.78;;
64520;SDS011;50896;46.714;17.322;2023-07-24T06:10:10;9.50;;;5.57;;
64520;SDS011;50896;46.714;17.322;2023-07-24T06:12:39;8.13;;;5.22;;
64520;SDS011;50896;46.714;17.322;2023-07-24T06:15:16;11.27;;;5.97;;
64520;SDS011;50896;46.714;17.322;2023-07-24T06:17:48;7.57;;;5.25;;
64520;SDS011;50896;46.714;17.322;2023-07-24T06:20:22;8.88;;;4.80;;
64520;SDS011;50896;46.714;17.322;2023-07-24T06:22:53;8.45;;;5.45;;
64520;SDS011;50896;46.714;17.322;2023-07-24T06:25:27;7.05;;;5.18;;
64520;SDS011;50896;46.714;17.322;2023-07-24T06:27:54;11.60;;;5.90;;
64520;SDS011;50896;46.714;17.322;2023-07-24T06:30:24;7.70;;;5.50;;
64520;SDS011;50896;46.714;17.322;2023-07-24T06:33:01;13.52;;;5.85;;
64520;SDS011;50896;46.714;17.322;2023-07-24T06:35:30;8.95;;;5.75;;
64520;SDS011;50896;46.714;17.322;2023-07-24T06:38:00;7.55;;;5.57;;
64520;SDS011;50896;46.714;17.322;2023-07-24T06:40:32;8.48;;;5.40;;
64520;SDS011;50896;46.714;17.322;2023-07-24T06:43:12;7.37;;;5.27;;
64520;SDS011;50896;46.714;17.322;2023-07-24T06:45:52;10.85;;;5.90;;
64520;SDS011;50896;46.714;17.322;2023-07-24T06:48:30;10.90;;;6.40;;
64520;SDS011;50896;46.714;17.322;2023-07-24T06:51:05;9.55;;;5.75;;
64520;SDS011;50896;46.714;17.322;2023-07-24T06:53:54;7.88;;;5.43;;
64520;SDS011;50896;46.714;17.322;2023-07-24T06:56:48;11.75;;;5.93;;
64520;SDS011;50896;46.714;17.322;2023-07-24T06:59:39;8.40;;;4.88;;
64520;SDS011;50896;46.714;17.322;2023-07-24T07:02:08;8.70;;;5.88;;
64520;SDS011;50896;46.714;17.322;2023-07-24T07:05:01;8.55;;;6.00;;
64520;SDS011;50896;46.714;17.322;2023-07-24T07:07:30;14.88;;;6.50;;
64520;SDS011;50896;46.714;17.322;2023-07-24T07:09:59;11.57;;;6.75;;
64520;SDS011;50896;46.714;17.322;2023-07-24T07:12:28;10.15;;;6.57;;
64520;SDS011;50896;46.714;17.322;2023-07-24T07:14:56;8.35;;;5.60;;
64520;SDS011;50896;46.714;17.322;2023-07-24T07:17:24;10.73;;;6.20;;
64520;SDS011;50896;46.714;17.322;2023-07-24T07:19:54;9.32;;;5.70;;
64520;SDS011;50896;46.714;17.322;2023-07-24T07:22:29;10.85;;;5.43;;
64520;SDS011;50896;46.714;17.322;2023-07-24T07:25:02;12.95;;;6.35;;
64520;SDS011;50896;46.714;17.322;2023-07-24T07:27:35;8.88;;;5.40;;
64520;SDS011;50896;46.714;17.322;2023-07-24T07:30:03;7.07;;;5.63;;
64520;SDS011;50896;46.714;17.322;2023-07-24T07:32:39;9.90;;;5.60;;
64520;SDS011;50896;46.714;17.322;2023-07-24T07:35:09;10.18;;;6.10;;
64520;SDS011;50896;46.714;17.322;2023-07-24T07:37:53;13.10;;;6.45;;
64520;SDS011;50896;46.714;17.322;2023-07-24T07:40:20;11.60;;;5.82;;
64520;SDS011;50896;46.714;17.322;2023-07-24T07:42:53;9.15;;;6.05;;
64520;SDS011;50896;46.714;17.322;2023-07-24T07:45:23;13.32;;;6.05;;
64520;SDS011;50896;46.714;17.322;2023-07-24T07:47:55;12.93;;;6.40;;
64520;SDS011;50896;46.714;17.322;2023-07-24T07:50:38;8.07;;;6.10;;
64520;SDS011;50896;46.714;17.322;2023-07-24T07:53:10;11.73;;;6.35;;
64520;SDS011;50896;46.714;17.322;2023-07-24T07:55:54;14.10;;;6.50;;
64520;SDS011;50896;46.714;17.322;2023-07-24T07:58:24;9.52;;;5.93;;
64520;SDS011;50896;46.714;17.322;2023-07-24T08:00:57;7.03;;;5.80;;
64520;SDS011;50896;46.714;17.322;2023-07-24T08:03:26;11.32;;;6.35;;
64520;SDS011;50896;46.714;17.322;2023-07-24T08:05:58;12.27;;;6.68;;
64520;SDS011;50896;46.714;17.322;2023-07-24T08:08:30;9.48;;;6.20;;
64520;SDS011;50896;46.714;17.322;2023-07-24T08:10:58;12.20;;;6.32;;
64520;SDS011;50896;46.714;17.322;2023-07-24T08:13:34;10.20;;;6.00;;
64520;SDS011;50896;46.714;17.322;2023-07-24T08:16:04;9.30;;;6.20;;
64520;SDS011;50896;46.714;17.322;2023-07-24T08:18:45;11.63;;;6.78;;
64520;SDS011;50896;46.714;17.322;2023-07-24T08:21:16;9.75;;;6.13;;
64520;SDS011;50896;46.714;17.322;2023-07-24T08:24:08;10.35;;;6.30;;
64520;SDS011;50896;46.714;17.322;2023-07-24T08:26:37;10.10;;;6.30;;
64520;SDS011;50896;46.714;17.322;2023-07-24T08:29:10;9.02;;;6.15;;
64520;SDS011;50896;46.714;17.322;2023-07-24T08:31:43;10.13;;;6.93;;
64520;SDS011;50896;46.714;17.322;2023-07-24T08:34:18;15.65;;;7.43;;
64520;SDS011;50896;46.714;17.322;2023-07-24T08:36:48;9.60;;;6.10;;
64520;SDS011;50896;46.714;17.322;2023-07-24T08:39:20;13.25;;;6.28;;
64520;SDS011;50896;46.714;17.322;2023-07-24T08:41:53;9.25;;;6.40;;
64520;SDS011;50896;46.714;17.322;2023-07-24T08:44:20;11.00;;;6.53;;
64520;SDS011;50896;46.714;17.322;2023-07-24T08:46:52;10.35;;;6.85;;
64520;SDS011;50896;46.714;17.322;2023-07-24T08:49:29;12.65;;;7.43;;
64520;SDS011;50896;46.714;17.322;2023-07-24T08:52:00;10.10;;;6.65;;
64520;SDS011;50896;46.714;17.322;2023-07-24T08:54:32;11.13;;;6.70;;
64520;SDS011;50896;46.714;17.322;2023-07-24T08:57:08;11.30;;;7.35;;
64520;SDS011;50896;46.714;17.322;2023-07-24T08:59:37;14.15;;;6.85;;
64520;SDS011;50896;46.714;17.322;2023-07-24T09:02:10;12.63;;;7.60;;
64520;SDS011;50896;46.714;17.322;2023-07-24T09:04:37;12.15;;;7.60;;
64520;SDS011;50896;46.714;17.322;2023-07-24T09:07:08;13.82;;;7.50;;
64520;SDS011;50896;46.714;17.322;2023-07-24T09:09:44;12.77;;;7.95;;
64520;SDS011;50896;46.714;17.322;2023-07-24T09:12:16;12.50;;;7.38;;
64520;SDS011;50896;46.714;17.322;2023-07-24T09:14:44;15.77;;;8.17;;
64520;SDS011;50896;46.714;17.322;2023-07-24T09:17:14;12.65;;;8.02;;
64520;SDS011;50896;46.714;17.322;2023-07-24T09:19:54;13.50;;;7.20;;
64520;SDS011;50896;46.714;17.322;2023-07-24T09:22:24;13.90;;;7.05;;
64520;SDS011;50896;46.714;17.322;2023-07-24T09:24:57;15.77;;;8.30;;
64520;SDS011;50896;46.714;17.322;2023-07-24T09:27:43;12.63;;;8.05;;
64520;SDS011;50896;46.714;17.322;2023-07-24T09:30:15;13.05;;;8.43;;
64520;SDS011;50896;46.714;17.322;2023-07-24T09:32:53;13.73;;;8.90;;
64520;SDS011;50896;46.714;17.322;2023-07-24T09:35:24;12.35;;;7.70;;
64520;SDS011;50896;46.714;17.322;2023-07-24T09:38:05;10.30;;;7.35;;
64520;SDS011;50896;46.714;17.322;2023-07-24T09:40:42;14.40;;;8.32;;
64520;SDS011;50896;46.714;17.322;2023-07-24T09:43:16;14.10;;;8.35;;
64520;SDS011;50896;46.714;17.322;2023-07-24T09:46:08;14.18;;;8.05;;
64520;SDS011;50896;46.714;17.322;2023-07-24T09:48:41;12.50;;;8.57;;
64520;SDS011;50896;46.714;17.322;2023-07-24T09:51:32;14.60;;;8.88;;
64520;SDS011;50896;46.714;17.322;2023-07-24T09:54:22;14.57;;;8.65;;
64520;SDS011;50896;46.714;17.322;2023-07-24T09:57:01;14.15;;;9.02;;
64520;SDS011;50896;46.714;17.322;2023-07-24T09:59:48;14.27;;;8.73;;
64520;SDS011;50896;46.714;17.322;2023-07-24T10:02:19;12.95;;;8.60;;
64520;SDS011;50896;46.714;17.322;2023-07-24T10:04:50;14.88;;;8.43;;
64520;SDS011;50896;46.714;17.322;2023-07-24T10:07:19;13.15;;;8.43;;
64520;SDS011;50896;46.714;17.322;2023-07-24T10:09:54;12.55;;;8.80;;
64520;SDS011;50896;46.714;17.322;2023-07-24T10:12:23;15.80;;;9.07;;
64520;SDS011;50896;46.714;17.322;2023-07-24T10:15:00;15.77;;;9.82;;
64520;SDS011;50896;46.714;17.322;2023-07-24T10:17:39;14.23;;;8.98;;
64520;SDS011;50896;46.714;17.322;2023-07-24T10:20:12;15.18;;;9.30;;
64520;SDS011;50896;46.714;17.322;2023-07-24T10:22:48;15.88;;;9.15;;
64520;SDS011;50896;46.714;17.322;2023-07-24T10:25:28;13.75;;;9.55;;
64520;SDS011;50896;46.714;17.322;2023-07-24T10:28:08;13.85;;;8.82;;
64520;SDS011;50896;46.714;17.322;2023-07-24T10:30:43;14.23;;;8.60;;
64520;SDS011;50896;46.714;17.322;2023-07-24T10:33:13;12.90;;;8.95;;
64520;SDS011;50896;46.714;17.322;2023-07-24T10:35:52;19.95;;;9.35;;
64520;SDS011;50896;46.714;17.322;2023-07-24T10:38:33;14.65;;;8.93;;
64520;SDS011;50896;46.714;17.322;2023-07-24T10:41:06;14.48;;;9.13;;
64520;SDS011;50896;46.714;17.322;2023-07-24T10:43:47;19.67;;;9.50;;
64520;SDS011;50896;46.714;17.322;2023-07-24T10:46:21;14.65;;;9.07;;
64520;SDS011;50896;46.714;17.322;2023-07-24T10:48:51;15.38;;;9.05;;
64520;SDS011;50896;46.714;17.322;2023-07-24T10:51:23;16.42;;;9.40;;
64520;SDS011;50896;46.714;17.322;2023-07-24T10:53:56;15.25;;;9.07;;
64520;SDS011;50896;46.714;17.322;2023-07-24T10:56:29;17.05;;;9.27;;
64520;SDS011;50896;46.714;17.322;2023-07-24T10:59:04;16.20;;;9.20;;
64520;SDS011;50896;46.714;17.322;2023-07-24T11:01:37;14.00;;;8.07;;
64520;SDS011;50896;46.714;17.322;2023-07-24T11:04:08;17.50;;;9.10;;
64520;SDS011;50896;46.714;17.322;2023-07-24T11:06:41;15.35;;;9.40;;
64520;SDS011;50896;46.714;17.322;2023-07-24T11:09:14;16.25;;;9.18;;
64520;SDS011;50896;46.714;17.322;2023-07-24T11:11:44;14.70;;;8.68;;
64520;SDS011;50896;46.714;17.322;2023-07-24T11:14:13;14.30;;;9.15;;
64520;SDS011;50896;46.714;17.322;2023-07-24T11:16:50;15.85;;;8.98;;
64520;SDS011;50896;46.714;17.322;2023-07-24T11:19:22;14.77;;;9.02;;
64520;SDS011;50896;46.714;17.322;2023-07-24T11:21:59;14.13;;;8.88;;
64520;SDS011;50896;46.714;17.322;2023-07-24T11:24:41;14.23;;;8.05;;
64520;SDS011;50896;46.714;17.322;2023-07-24T11:27:16;15.30;;;8.63;;
64520;SDS011;50896;46.714;17.322;2023-07-24T11:29:48;14.82;;;8.80;;
64520;SDS011;50896;46.714;17.322;2023-07-24T11:32:40;15.45;;;9.20;;
64520;SDS011;50896;46.714;17.322;2023-07-24T11:35:13;21.15;;;8.93;;
64520;SDS011;50896;46.714;17.322;2023-07-24T11:37:49;14.77;;;8.63;;
64520;SDS011;50896;46.714;17.322;2023-07-24T11:40:20;15.27;;;8.93;;
64520;SDS011;50896;46.714;17.322;2023-07-24T11:42:52;14.43;;;9.07;;
64520;SDS011;50896;46.714;17.322;2023-07-24T11:45:22;15.90;;;9.40;;
64520;SDS011;50896;46.714;17.322;2023-07-24T11:47:51;15.88;;;8.75;;
64520;SDS011;50896;46.714;17.322;2023-07-24T11:50:24;15.02;;;8.82;;
64520;SDS011;50896;46.714;17.322;2023-07-24T11:53:01;15.70;;;9.20;;
64520;SDS011;50896;46.714;17.322;2023-07-24T11:55:39;15.05;;;8.68;;
64520;SDS011;50896;46.714;17.322;2023-07-24T11:58:13;12.27;;;8.35;;
64520;SDS011;50896;46.714;17.322;2023-07-24T12:00:52;14.73;;;8.80;;
64520;SDS011;50896;46.714;17.322;2023-07-24T12:03:21;12.75;;;8.30;;
64520;SDS011;50896;46.714;17.322;2023-07-24T12:05:53;14.98;;;8.95;;
64520;SDS011;50896;46.714;17.322;2023-07-24T12:08:34;13.32;;;8.82;;
64520;SDS011;50896;46.714;17.322;2023-07-24T12:11:28;16.25;;;8.15;;
64520;SDS011;50896;46.714;17.322;2023-07-24T12:14:01;17.55;;;9.40;;
64520;SDS011;50896;46.714;17.322;2023-07-24T12:16:33;12.85;;;8.15;;
64520;SDS011;50896;46.714;17.322;2023-07-24T12:19:03;14.80;;;8.25;;
64520;SDS011;50896;46.714;17.322;2023-07-24T12:21:52;15.18;;;9.07;;
64520;SDS011;50896;46.714;17.322;2023-07-24T12:24:35;16.52;;;9.07;;
64520;SDS011;50896;46.714;17.322;2023-07-24T12:27:03;14.82;;;9.27;;
64520;SDS011;50896;46.714;17.322;2023-07-24T12:29:35;15.70;;;9.02;;
64520;SDS011;50896;46.714;17.322;2023-07-24T12:32:09;19.95;;;9.07;;
64520;SDS011;50896;46.714;17.322;2023-07-24T12:34:38;16.23;;;9.55;;
64520;SDS011;50896;46.714;17.322;2023-07-24T12:37:09;18.38;;;9.45;;
64520;SDS011;50896;46.714;17.322;2023-07-24T12:39:39;17.98;;;9.43;;
64520;SDS011;50896;46.714;17.322;2023-07-24T12:44:42;16.50;;;9.77;;
64520;SDS011;50896;46.714;17.322;2023-07-24T12:47:17;18.08;;;9.90;;
64520;SDS011;50896;46.714;17.322;2023-07-24T12:49:49;14.77;;;9.60;;
64520;SDS011;50896;46.714;17.322;2023-07-24T12:52:24;18.10;;;9.63;;
64520;SDS011;50896;46.714;17.322;2023-07-24T12:54:54;19.55;;;9.85;;
64520;SDS011;50896;46.714;17.322;2023-07-24T12:57:29;15.43;;;9.70;;
64520;SDS011;50896;46.714;17.322;2023-07-24T13:00:00;13.88;;;8.75;;
64520;SDS011;50896;46.714;17.322;2023-07-24T13:02:31;12.95;;;8.98;;
64520;SDS011;50896;46.714;17.322;2023-07-24T13:05:03;14.52;;;9.52;;
64520;SDS011;50896;46.714;17.322;2023-07-24T13:07:35;14.23;;;9.63;;
64520;SDS011;50896;46.714;17.322;2023-07-24T13:10:04;15.90;;;9.35;;
64520;SDS011;50896;46.714;17.322;2023-07-24T13:12:34;18.02;;;9.75;;
64520;SDS011;50896;46.714;17.322;2023-07-24T13:15:16;17.50;;;9.70;;
64520;SDS011;50896;46.714;17.322;2023-07-24T13:17:46;18.25;;;9.98;;
64520;SDS011;50896;46.714;17.322;2023-07-24T13:20:20;16.10;;;9.50;;
64520;SDS011;50896;46.714;17.322;2023-07-24T13:22:50;19.70;;;9.90;;
64520;SDS011;50896;46.714;17.322;2023-07-24T13:25:23;16.83;;;9.93;;
64520;SDS011;50896;46.714;17.322;2023-07-24T13:28:06;16.27;;;9.85;;
64520;SDS011;50896;46.714;17.322;2023-07-24T13:30:36;19.35;;;9.98;;
64520;SDS011;50896;46.714;17.322;2023-07-24T13:33:14;15.70;;;10.00;;
64520;SDS011;50896;46.714;17.322;2023-07-24T13:35:41;14.82;;;8.98;;
64520;SDS011;50896;46.714;17.322;2023-07-24T13:38:34;16.48;;;9.70;;
64520;SDS011;50896;46.714;17.322;2023-07-24T13:41:11;15.50;;;9.93;;
64520;SDS011;50896;46.714;17.322;2023-07-24T13:43:40;15.68;;;9.90;;
64520;SDS011;50896;46.714;17.322;2023-07-24T13:46:20;19.65;;;9.27;;
64520;SDS011;50896;46.714;17.322;2023-07-24T13:48:51;15.95;;;9.23;;
64520;SDS011;50896;46.714;17.322;2023-07-24T13:51:18;14.25;;;8.90;;
64520;SDS011;50896;46.714;17.322;2023-07-24T13:53:54;15.10;;;9.27;;
64520;SDS011;50896;46.714;17.322;2023-07-24T13:56:24;14.98;;;8.43;;
64520;SDS011;50896;46.714;17.322;2023-07-24T13:58:58;14.35;;;8.98;;
64520;SDS011;50896;46.714;17.322;2023-07-24T14:01:33;14.38;;;8.95;;
64520;SDS011;50896;46.714;17.322;2023-07-24T14:06:36;21.15;;;9.55;;
64520;SDS011;50896;46.714;17.322;2023-07-24T14:09:08;14.95;;;8.68;;
64520;SDS011;50896;46.714;17.322;2023-07-24T14:11:40;13.80;;;8.63;;
64520;SDS011;50896;46.714;17.322;2023-07-24T14:14:13;13.95;;;8.88;;
64520;SDS011;50896;46.714;17.322;2023-07-24T14:16:44;15.23;;;8.23;;
64520;SDS011;50896;46.714;17.322;2023-07-24T14:19:17;16.50;;;8.48;;
64520;SDS011;50896;46.714;17.322;2023-07-24T14:21:47;16.02;;;9.20;;
64520;SDS011;50896;46.714;17.322;2023-07-24T14:24:20;16.63;;;8.90;;
64520;SDS011;50896;46.714;17.322;2023-07-24T14:26:51;13.32;;;8.60;;
64520;SDS011;50896;46.714;17.322;2023-07-24T14:29:28;14.20;;;8.57;;
64520;SDS011;50896;46.714;17.322;2023-07-24T14:31:57;16.63;;;8.23;;
64520;SDS011;50896;46.714;17.322;2023-07-24T14:34:31;15.35;;;8.25;;
64520;SDS011;50896;46.714;17.322;2023-07-24T14:37:01;15.50;;;8.45;;
64520;SDS011;50896;46.714;17.322;2023-07-24T14:39:29;16.13;;;8.30;;
64520;SDS011;50896;46.714;17.322;2023-07-24T14:42:01;14.93;;;8.38;;
64520;SDS011;50896;46.714;17.322;2023-07-24T14:44:36;16.70;;;8.35;;
64520;SDS011;50896;46.714;17.322;2023-07-24T14:47:08;13.90;;;8.38;;
64520;SDS011;50896;46.714;17.322;2023-07-24T14:49:41;12.95;;;8.00;;
64520;SDS011;50896;46.714;17.322;2023-07-24T14:52:25;14.27;;;8.18;;
64520;SDS011;50896;46.714;17.322;2023-07-24T14:54:57;14.27;;;7.60;;
64520;SDS011;50896;46.714;17.322;2023-07-24T14:57:35;12.25;;;7.78;;
64520;SDS011;50896;46.714;17.322;2023-07-24T15:00:05;15.05;;;8.38;;
64520;SDS011;50896;46.714;17.322;2023-07-24T15:02:46;14.40;;;8.40;;
64520;SDS011;50896;46.714;17.322;2023-07-24T15:05:15;15.65;;;8.27;;
64520;SDS011;50896;46.714;17.322;2023-07-24T15:07:46;14.20;;;7.60;;
64520;SDS011;50896;46.714;17.322;2023-07-24T15:10:21;17.80;;;8.00;;
64520;SDS011;50896;46.714;17.322;2023-07-24T15:12:49;12.90;;;7.82;;
64520;SDS011;50896;46.714;17.322;2023-07-24T15:15:23;18.20;;;7.82;;
64520;SDS011;50896;46.714;17.322;2023-07-24T15:17:58;15.57;;;7.97;;
64520;SDS011;50896;46.714;17.322;2023-07-24T15:20:28;13.68;;;7.57;;
64520;SDS011;50896;46.714;17.322;2023-07-24T15:23:00;16.35;;;7.88;;
64520;SDS011;50896;46.714;17.322;2023-07-24T15:25:32;12.07;;;7.38;;
64520;SDS011;50896;46.714;17.322;2023-07-24T15:28:25;13.30;;;7.82;;